joomla templates top joomla templates template joomla
King Air AbendWebcam / ATIS

Wetterbeurteilung mit Hilfe Webcam und ATIS

 

Webcam 1 Webcam 2

(Zum vergrößern auf das Bild klicken)

Aerodrome Terminal Information Service (ATIS) Coburg

METAR
EDQC 281156Z AUTO 25009KT 220V280 9999 FEW008 BKN014 OVC041 01/M01 Q1018=

Notam

C0503/18 - COBURG INFO CHANGED TO 128.680 (8.33 KHZ). 28 FEB 12:22 2018 UNTIL PERM. CREATED:
28 FEB 12:22 2018

Aktuelles Platzwetter

Wind (Richtung / Stärke)

250 ° / 11 kt

Variabel

230 - 280 °

Min / Max

6 - 16 kt

Sichtweite

>10000 m

Temperatur

1 °C

Taupunkt

-1 °C

Feuchte

86 %

QNH

1018.2 hPa

QFE

964.5 hPa

Wolken

SCT010 BKN014 OVC042

Wettererscheinung

Noch nicht aktualisiert / Stand 28.02.2020 12:05Z

Sunrise / Sunset (UTC)

28.02.2020
06:02 16:54

Wetterverlauf

Windvorhersage

Verkehrslandeplatz Coburg Brandensteinsebene
Tower
Zur Brandensteinsebene
96450 Coburg

 

Telefon +49 (0) 95 61 / 9 20 98
Telefax +49 (0) 95 61 / 9 20 06
EMail tower@vlp-coburg.de